createdAt,value
2022-11-27T00:00:29.937Z,15.65
2022-11-27T00:02:57.044Z,13.68
2022-11-27T00:10:14.704Z,13.23
2022-11-27T00:15:07.027Z,16.92
2022-11-27T00:17:43.192Z,10.60
2022-11-27T00:20:10.058Z,12.40
2022-11-27T00:22:36.737Z,10.43
2022-11-27T00:27:33.155Z,12.73
2022-11-27T00:29:59.826Z,9.32
2022-11-27T00:32:26.487Z,14.45
2022-11-27T00:34:53.167Z,6.57
2022-11-27T00:37:19.854Z,10.20
2022-11-27T00:42:12.871Z,10.40
2022-11-27T00:44:39.936Z,11.40
2022-11-27T00:51:57.884Z,7.13
2022-11-27T00:56:50.041Z,11.68
2022-11-27T00:59:16.711Z,13.10
2022-11-27T01:04:11.796Z,10.77
2022-11-27T01:06:38.517Z,12.43
2022-11-27T01:16:25.964Z,6.72
2022-11-27T01:18:54.558Z,9.05
2022-11-27T01:21:21.552Z,11.20
2022-11-27T01:23:49.007Z,10.60
2022-11-27T01:26:17.731Z,9.05
2022-11-27T01:28:44.882Z,8.23
2022-11-27T01:31:13.091Z,7.05
2022-11-27T01:33:40.047Z,9.85
2022-11-27T01:36:07.893Z,10.45
2022-11-27T01:38:34.664Z,12.40
2022-11-27T01:41:02.803Z,12.07
2022-11-27T01:43:43.326Z,7.53
2022-11-27T01:46:30.433Z,13.18
2022-11-27T01:49:04.675Z,11.27
2022-11-27T01:51:31.610Z,8.52
2022-11-27T01:53:58.507Z,9.57
2022-11-27T01:58:51.957Z,10.52
2022-11-27T02:01:18.694Z,8.23
2022-11-27T02:03:45.444Z,11.57
2022-11-27T02:06:12.910Z,11.13
2022-11-27T02:08:40.203Z,9.30
2022-11-27T02:16:25.173Z,10.60
2022-11-27T02:18:58.943Z,8.10
2022-11-27T02:26:41.492Z,9.73
2022-11-27T02:29:10.202Z,12.13
2022-11-27T02:34:14.478Z,10.05
2022-11-27T02:36:43.897Z,6.97
2022-11-27T02:49:23.737Z,8.77
2022-11-27T02:51:55.408Z,6.63
2022-11-27T02:54:24.530Z,12.00
2022-11-27T02:56:52.275Z,8.13
2022-11-27T02:59:20.409Z,14.05
2022-11-27T03:01:50.704Z,9.35
2022-11-27T03:04:19.154Z,9.57
2022-11-27T03:06:54.626Z,10.13
2022-11-27T03:09:34.297Z,8.47
2022-11-27T03:12:01.008Z,11.48
2022-11-27T03:14:28.089Z,9.30
2022-11-27T03:22:16.553Z,11.10
2022-11-27T03:24:43.417Z,4.75
2022-11-27T03:27:12.206Z,7.15
2022-11-27T03:39:28.546Z,10.10
2022-11-27T03:41:58.199Z,10.70
2022-11-27T03:47:07.061Z,10.38
2022-11-27T03:49:33.788Z,8.55
2022-11-27T03:52:23.457Z,9.90
2022-11-27T03:57:48.055Z,9.35
2022-11-27T04:00:15.179Z,5.18
2022-11-27T04:02:46.019Z,7.10
2022-11-27T04:05:13.134Z,6.63
2022-11-27T04:07:39.826Z,9.55
2022-11-27T04:10:06.894Z,7.90
2022-11-27T04:12:33.619Z,6.95
2022-11-27T04:15:00.571Z,7.63
2022-11-27T04:17:27.271Z,6.57
2022-11-27T04:22:19.374Z,6.55
2022-11-27T04:24:46.091Z,3.63
2022-11-27T04:34:29.752Z,7.47
2022-11-27T04:36:56.506Z,4.07
2022-11-27T04:39:23.332Z,3.50
2022-11-27T04:46:41.329Z,4.00
2022-11-27T04:56:25.814Z,3.22
2022-11-27T04:58:52.469Z,2.22
2022-11-27T05:01:19.176Z,3.35
2022-11-27T05:03:46.947Z,6.60
2022-11-27T05:06:13.830Z,3.28
2022-11-27T05:08:40.476Z,4.68
2022-11-27T05:11:08.590Z,4.25
2022-11-27T05:13:35.221Z,4.32
2022-11-27T05:16:02.013Z,1.63
2022-11-27T05:23:23.543Z,2.78
2022-11-27T05:25:50.316Z,2.42
2022-11-27T05:28:16.930Z,3.42
2022-11-27T05:33:09.002Z,5.15
2022-11-27T05:35:35.692Z,4.82
2022-11-27T05:38:02.374Z,2.08
2022-11-27T05:40:29.523Z,2.42
2022-11-27T05:42:56.121Z,3.40
2022-11-27T05:45:22.866Z,2.45
2022-11-27T05:47:49.507Z,2.25
2022-11-27T05:50:16.093Z,3.33
2022-11-27T05:52:42.895Z,3.33
2022-11-27T05:55:09.751Z,2.20
2022-11-27T05:57:36.373Z,2.67
2022-11-27T06:00:03.814Z,1.75
2022-11-27T06:02:31.446Z,2.40
2022-11-27T06:04:58.198Z,2.40
2022-11-27T06:09:50.190Z,2.40
2022-11-27T06:12:16.902Z,2.70
2022-11-27T06:14:43.672Z,2.80
2022-11-27T06:17:10.369Z,1.15
2022-11-27T06:19:37.024Z,1.50
2022-11-27T06:22:03.708Z,2.10
2022-11-27T06:24:30.407Z,2.20
2022-11-27T06:26:56.972Z,2.78
2022-11-27T06:29:23.687Z,2.28
2022-11-27T06:31:50.521Z,2.78
2022-11-27T06:34:17.256Z,2.80
2022-11-27T06:36:44.211Z,4.28
2022-11-27T06:39:12.095Z,3.78
2022-11-27T06:41:38.717Z,3.53
2022-11-27T06:44:05.369Z,2.25
2022-11-27T06:46:32.085Z,5.55
2022-11-27T06:48:59.039Z,2.10
2022-11-27T06:58:44.944Z,1.95
2022-11-27T07:01:15.629Z,1.50
2022-11-27T07:03:42.655Z,3.00
2022-11-27T07:06:10.369Z,2.83
2022-11-27T07:08:37.295Z,2.45
2022-11-27T07:11:05.068Z,3.22
2022-11-27T07:35:24.146Z,3.08
2022-11-27T07:40:18.357Z,2.50
2022-11-27T07:42:45.078Z,3.17
2022-11-27T07:50:03.435Z,2.30
2022-11-27T08:12:03.975Z,2.20
2022-11-27T09:03:24.151Z,2.35
2022-11-27T09:05:54.278Z,4.68
2022-11-27T09:08:26.905Z,4.78
2022-11-27T09:10:53.667Z,3.60
2022-11-27T09:13:20.543Z,2.75
2022-11-27T09:27:55.307Z,4.28
2022-11-27T09:32:47.938Z,3.88
2022-11-27T09:35:14.950Z,5.75
2022-11-27T09:37:45.908Z,3.60
2022-11-27T09:40:19.983Z,6.22
2022-11-27T10:02:43.683Z,7.18
2022-11-27T10:05:28.928Z,8.38
2022-11-27T10:15:56.551Z,4.72
2022-11-27T10:18:32.526Z,4.10
2022-11-27T10:23:49.683Z,4.43
2022-11-27T11:16:24.501Z,5.80
2022-11-27T11:18:52.768Z,6.32
2022-11-27T11:28:57.773Z,5.63
2022-11-27T11:34:07.897Z,6.38
2022-11-27T11:36:35.654Z,6.15
2022-11-27T11:51:32.393Z,6.72
2022-11-27T11:59:17.019Z,3.95
2022-11-27T12:07:02.711Z,6.88
2022-11-27T12:14:49.779Z,3.33
2022-11-27T12:17:23.153Z,4.85
2022-11-27T12:19:53.112Z,6.40
2022-11-27T12:22:25.867Z,4.05
2022-11-27T12:25:11.287Z,4.68
2022-11-27T12:27:50.053Z,3.53
2022-11-27T12:30:20.898Z,4.78
2022-11-27T12:32:47.607Z,7.03
2022-11-27T12:40:30.202Z,4.10
2022-11-27T12:43:00.096Z,4.57
2022-11-27T12:53:24.583Z,4.85
2022-11-27T12:58:39.613Z,4.88
2022-11-27T13:01:09.906Z,4.22
2022-11-27T13:03:39.445Z,9.77
2022-11-27T13:06:08.750Z,6.35
2022-11-27T13:11:26.422Z,8.48
2022-11-27T13:13:55.355Z,2.15
2022-11-27T13:18:56.589Z,2.35
2022-11-27T13:21:25.389Z,1.83
2022-11-27T13:23:52.166Z,1.92
2022-11-27T13:31:55.307Z,1.90
2022-11-27T13:34:23.832Z,1.92
2022-11-27T13:36:59.817Z,2.33
2022-11-27T13:39:37.058Z,1.67
2022-11-27T13:42:09.339Z,2.30
2022-11-27T13:44:38.061Z,1.55
2022-11-27T13:47:06.609Z,1.75
2022-11-27T13:49:34.263Z,1.70
2022-11-27T13:52:05.214Z,1.70
2022-11-27T13:54:31.822Z,2.15
2022-11-27T13:59:39.170Z,2.35
2022-11-27T14:02:07.190Z,2.58
2022-11-27T14:04:34.383Z,2.40
2022-11-27T14:07:03.710Z,2.35
2022-11-27T14:24:58.967Z,4.65
2022-11-27T14:27:26.963Z,3.25
2022-11-27T14:29:53.773Z,3.60
2022-11-27T14:47:19.740Z,2.50
2022-11-27T14:49:46.744Z,2.55
2022-11-27T14:52:15.051Z,5.53
2022-11-27T15:14:26.864Z,5.03
2022-11-27T15:16:54.057Z,2.88
2022-11-27T15:19:27.372Z,4.65
2022-11-27T15:21:54.226Z,3.92
2022-11-27T15:24:29.501Z,2.58
2022-11-27T15:27:06.890Z,2.90
2022-11-27T15:29:38.330Z,3.08
2022-11-27T15:32:23.284Z,2.88
2022-11-27T15:44:41.059Z,3.88
2022-11-27T16:24:02.393Z,12.00
2022-11-27T16:26:30.005Z,9.02
2022-11-27T16:29:00.029Z,9.52
2022-11-27T16:41:14.750Z,14.00
2022-11-27T16:43:49.974Z,6.78
2022-11-27T17:15:40.533Z,9.27
2022-11-27T17:18:08.510Z,11.30
2022-11-27T17:20:35.785Z,11.45
2022-11-27T17:23:02.838Z,16.08
2022-11-27T17:25:30.738Z,16.33
2022-11-27T17:32:48.421Z,11.27
2022-11-27T17:40:07.627Z,13.85
2022-11-27T17:42:38.314Z,14.38
2022-11-27T18:09:29.110Z,11.95
2022-11-27T18:11:57.417Z,11.18
2022-11-27T18:26:52.388Z,13.90
2022-11-27T18:39:02.017Z,14.25
2022-11-27T18:41:29.084Z,8.13
2022-11-27T18:43:58.544Z,11.13
2022-11-27T18:53:44.157Z,14.68
2022-11-27T18:56:12.808Z,18.27
2022-11-27T18:58:39.700Z,11.23
2022-11-27T19:01:08.721Z,12.23
2022-11-27T19:03:43.014Z,9.43
2022-11-27T19:08:36.327Z,10.05
2022-11-27T19:11:05.202Z,10.60
2022-11-27T19:13:33.134Z,11.57
2022-11-27T19:16:00.591Z,9.27
2022-11-27T19:18:27.494Z,10.07
2022-11-27T19:28:12.423Z,7.65
2022-11-27T19:30:42.051Z,7.97
2022-11-27T19:40:30.464Z,8.52
2022-11-27T19:43:01.056Z,9.25
2022-11-27T19:52:47.865Z,24.15
2022-11-27T19:55:14.732Z,31.42
2022-11-27T19:57:41.955Z,28.90
2022-11-27T20:17:12.120Z,16.98
2022-11-27T20:19:39.561Z,22.15
2022-11-27T20:22:06.683Z,21.08
2022-11-27T20:34:17.719Z,12.48
2022-11-27T20:36:44.503Z,12.75
2022-11-27T20:41:36.852Z,11.55
2022-11-27T20:44:04.848Z,17.05
2022-11-27T20:46:32.616Z,21.05
2022-11-27T20:49:01.153Z,15.32
2022-11-27T20:51:30.898Z,17.13
2022-11-27T20:53:58.380Z,17.83
2022-11-27T20:56:25.473Z,19.17
2022-11-27T20:58:52.938Z,19.25
2022-11-27T21:08:41.751Z,15.40
2022-11-27T21:11:13.209Z,15.48
2022-11-27T21:13:40.043Z,19.70
2022-11-27T21:16:07.874Z,18.25
2022-11-27T21:18:34.682Z,20.05
2022-11-27T21:21:11.869Z,22.20
2022-11-27T21:23:39.393Z,15.25
2022-11-27T21:26:06.109Z,17.58
2022-11-27T21:31:06.852Z,19.65
2022-11-27T21:36:00.208Z,14.23
2022-11-27T21:38:27.480Z,19.85
2022-11-27T21:43:20.226Z,14.95
2022-11-27T21:45:49.047Z,18.55
2022-11-27T21:48:16.142Z,15.70
2022-11-27T21:50:43.795Z,12.60
2022-11-27T21:53:10.993Z,11.70
2022-11-27T21:58:09.823Z,15.30
2022-11-27T22:00:36.901Z,9.20
2022-11-27T22:03:03.679Z,7.00
2022-11-27T22:05:30.319Z,9.57
2022-11-27T22:07:57.064Z,13.10
2022-11-27T22:10:23.790Z,16.00
2022-11-27T22:12:50.577Z,10.25
2022-11-27T22:15:17.272Z,15.82
2022-11-27T22:22:35.218Z,15.38
2022-11-27T22:25:04.759Z,16.25
2022-11-27T22:27:31.460Z,13.32
2022-11-27T22:29:58.513Z,15.10
2022-11-27T22:32:25.217Z,13.95
2022-11-27T22:34:52.130Z,14.07
2022-11-27T22:37:18.811Z,15.48
2022-11-27T22:44:37.759Z,18.23
2022-11-27T22:47:04.533Z,18.58
2022-11-27T22:49:31.197Z,15.93
2022-11-27T22:51:57.774Z,20.40
2022-11-27T22:54:24.767Z,21.52
2022-11-27T22:56:51.457Z,28.77
2022-11-27T22:59:34.504Z,28.30
2022-11-27T23:02:02.479Z,20.52
2022-11-27T23:04:29.312Z,29.95
2022-11-27T23:06:55.901Z,19.35
2022-11-27T23:09:22.820Z,29.25
2022-11-27T23:11:49.994Z,26.80
2022-11-27T23:14:16.806Z,29.50
2022-11-27T23:19:09.566Z,23.85
2022-11-27T23:21:37.779Z,36.75
2022-11-27T23:26:30.521Z,34.08
2022-11-27T23:28:57.298Z,37.40
2022-11-27T23:31:32.338Z,32.05
2022-11-27T23:34:01.337Z,40.28
2022-11-27T23:46:13.761Z,42.75
2022-11-27T23:48:40.842Z,48.97
2022-11-27T23:53:34.243Z,38.75
2022-11-27T23:56:05.043Z,45.15
2022-11-27T23:58:31.698Z,61.13
